Welcome to Northern Hawkes Bay. New Zealand.
PWS Header
      nz Flag



Hit Counter


W3C Valid W3C Valid logo


    Wairoa

Select any of the Stations below to visit their websites.










Historic Data from Weather Underground
Select the location of interest below. Wairoa is the default. Please have patience, this Data is slow to load in.
Northern Hawkes Bay Historical Data
Daily Summary for February 12, 2017 Units:  Metric    English   Both
« Previous Day
Next Day »
Daily Weekly Monthly Yearly Custom
  High: Low: Average:
Temperature: 28.5 °C 9.4 °C 20 °C
Dew Point: 15.8 °C 9.3 °C 11.6 °C
Humidity: 99% 33% 64%
Wind Speed: 31.7km/h 0.0km/h 9.6km/h
Wind Gust: 42.8km/h - -
Wind- - NW
Pressure: 1005.0 hPa 994.5 hPa -
Precipitation: 0.0 mm    
Historical Graphs
 
 
Tabular Data for February 12, 2017
Time Temperature Dew Point Pressure Wind Wind Speed Wind Gust Humidity Rainfall Rate (Hourly) solar
00:00 11.5 °C 10.2 °C 1005.0 hPa NNW 1.1 km/h 5.0 km/h 92% 0.0 mm 0 W/m2
00:05 11.3 °C 10.1 °C 1004.6 hPa NNW 3.5 km/h 5.0 km/h 92% 0.0 mm 0 W/m2
00:10 11.5 °C 10.4 °C 1004.6 hPa NNW 5.0 km/h 8.7 km/h 93% 0.0 mm 0 W/m2
00:16 11.6 °C 10.5 °C 1004.6 hPa NNW 5.0 km/h 8.7 km/h 93% 0.0 mm 0 W/m2
00:21 11.6 °C 10.5 °C 1004.6 hPa NW 2.6 km/h 8.7 km/h 93% 0.0 mm 0 W/m2
00:26 11.6 °C 10.5 °C 1004.3 hPa NNW 3.5 km/h 8.7 km/h 93% 0.0 mm 0 W/m2
00:31 11.6 °C 10.3 °C 1003.9 hPa NNW 1.1 km/h 6.1 km/h 92% 0.0 mm 0 W/m2
00:36 11.6 °C 10.3 °C 1003.9 hPa NNW 3.5 km/h 6.1 km/h 92% 0.0 mm 0 W/m2
00:41 11.6 °C 10.5 °C 1003.9 hPa NNW 6.1 km/h 9.7 km/h 93% 0.0 mm 0 W/m2
00:46 11.6 °C 10.5 °C 1003.6 hPa NNW 3.5 km/h 9.7 km/h 93% 0.0 mm 0 W/m2
00:51 11.5 °C 10.2 °C 1003.9 hPa NNW 3.5 km/h 9.7 km/h 92% 0.0 mm 0 W/m2
00:56 11.4 °C 10.2 °C 1003.6 hPa NNW 1.1 km/h 6.1 km/h 92% 0.0 mm 0 W/m2
01:01 11.3 °C 10.1 °C 1003.6 hPa NNW 3.5 km/h 6.1 km/h 92% 0.0 mm 0 W/m2
01:06 11.2 °C 10.1 °C 1003.6 hPa NNW 2.6 km/h 6.1 km/h 93% 0.0 mm 0 W/m2
01:11 11.1 °C 10.0 °C 1003.3 hPa NNW 1.1 km/h 6.1 km/h 93% 0.0 mm 0 W/m2
01:16 11.1 °C 10.0 °C 1003.3 hPa NNW 5.0 km/h 6.1 km/h 93% 0.0 mm 0 W/m2
01:21 11.0 °C 10.1 °C 1003.3 hPa NNW 1.1 km/h 6.1 km/h 94% 0.0 mm 0 W/m2
01:26 10.9 °C 10.1 °C 1003.3 hPa NW 2.6 km/h 6.1 km/h 95% 0.0 mm 0 W/m2
01:31 10.8 °C 10.1 °C 1002.9 hPa NW 2.6 km/h 6.1 km/h 95% 0.0 mm 0 W/m2
01:36 10.7 °C 9.9 °C 1002.9 hPa Calm   6.1 km/h 95% 0.0 mm 0 W/m2
01:41 10.7 °C 9.9 °C 1002.9 hPa NNW 1.1 km/h 5.0 km/h 95% 0.0 mm 0 W/m2
01:46 10.7 °C 9.9 °C 1002.9 hPa NW 2.6 km/h 3.5 km/h 95% 0.0 mm 0 W/m2
01:51 10.7 °C 10.1 °C 1002.9 hPa NNW 1.1 km/h 5.0 km/h 96% 0.0 mm 0 W/m2
01:56 10.7 °C 10.1 °C 1002.9 hPa NNW 2.6 km/h 7.2 km/h 96% 0.0 mm 0 W/m2
02:01 10.8 °C 10.2 °C 1002.6 hPa NNW 6.1 km/h 9.7 km/h 96% 0.0 mm 0 W/m2
02:06 10.9 °C 10.4 °C 1002.6 hPa NNW 5.0 km/h 9.7 km/h 97% 0.0 mm 0 W/m2
02:11 10.9 °C 10.4 °C 1002.6 hPa NNW 5.0 km/h 9.7 km/h 97% 0.0 mm 0 W/m2
02:17 10.8 °C 10.3 °C 1002.6 hPa NNW 3.5 km/h 8.7 km/h 97% 0.0 mm 0 W/m2
02:22 10.8 °C 10.2 °C 1002.6 hPa NNW 6.1 km/h 9.7 km/h 96% 0.0 mm 0 W/m2
02:27 10.8 °C 10.2 °C 1002.3 hPa NW 3.5 km/h 11.1 km/h 96% 0.0 mm 0 W/m2
02:33 10.7 °C 10.1 °C 1002.3 hPa NNW 2.6 km/h 11.1 km/h 96% 0.0 mm 0 W/m2
02:38 10.6 °C 10.0 °C 1002.3 hPa NNW 2.6 km/h 8.7 km/h 96% 0.0 mm 0 W/m2
02:44 10.5 °C 9.9 °C 1001.9 hPa NNW 1.1 km/h 6.1 km/h 96% 0.0 mm 0 W/m2
02:49 10.4 °C 9.8 °C 1001.9 hPa Calm   5.0 km/h 96% 0.0 mm 0 W/m2
03:06 10.2 °C 9.7 °C 1001.9 hPa Calm   3.5 km/h 97% 0.0 mm 0 W/m2
03:11 10.3 °C 9.8 °C 1001.9 hPa North 3.5 km/h 5.0 km/h 97% 0.0 mm 0 W/m2
03:16 10.3 °C 9.8 °C 1001.9 hPa NNW 2.6 km/h 6.1 km/h 97% 0.0 mm 0 W/m2
03:21 10.3 °C 9.8 °C 1001.6 hPa NNW 3.5 km/h 6.1 km/h 97% 0.0 mm 0 W/m2
03:26 10.2 °C 9.9 °C 1001.6 hPa NNW 2.6 km/h 6.1 km/h 98% 0.0 mm 0 W/m2
03:31 10.1 °C 9.8 °C 1001.6 hPa NNW 2.6 km/h 6.1 km/h 98% 0.0 mm 0 W/m2
03:36 10.1 °C 9.8 °C 1001.6 hPa NNW 2.6 km/h 6.1 km/h 98% 0.0 mm 0 W/m2
03:41 10.1 °C 9.8 °C 1001.6 hPa NNW 3.5 km/h 6.1 km/h 98% 0.0 mm 0 W/m2
03:46 10.1 °C 9.8 °C 1001.2 hPa North 3.5 km/h 6.1 km/h 98% 0.0 mm 0 W/m2
03:51 10.2 °C 10.1 °C 1001.2 hPa North 3.5 km/h 8.7 km/h 99% 0.0 mm 0 W/m2
03:56 10.3 °C 10.2 °C 1001.2 hPa North 5.0 km/h 8.7 km/h 99% 0.0 mm 0 W/m2
04:15 10.2 °C 10.1 °C 1000.9 hPa NNW 6.1 km/h 8.7 km/h 99% 0.0 mm 0 W/m2
04:20 10.3 °C 10.2 °C 1000.9 hPa NNW 3.5 km/h 11.1 km/h 99% 0.0 mm 0 W/m2
04:25 10.3 °C 10.2 °C 1000.9 hPa NNW 2.6 km/h 11.1 km/h 99% 0.0 mm 0 W/m2
04:30 10.3 °C 10.2 °C 1000.9 hPa North 2.6 km/h 6.1 km/h 99% 0.0 mm 0 W/m2
04:49 10.4 °C 10.3 °C 1000.9 hPa NNW 3.5 km/h 6.1 km/h 99% 0.0 mm 0 W/m2
04:55 10.4 °C 10.3 °C 1000.9 hPa NNW 2.6 km/h 6.1 km/h 99% 0.0 mm 0 W/m2
05:00 10.3 °C 10.2 °C 1000.6 hPa NNW 1.1 km/h 6.1 km/h 99% 0.0 mm 0 W/m2
05:05 10.2 °C 10.1 °C 1000.6 hPa NNW 3.5 km/h 6.1 km/h 99% 0.0 mm 0 W/m2
05:10 10.2 °C 10.1 °C 1000.6 hPa NNW 2.6 km/h 6.1 km/h 99% 0.0 mm 0 W/m2
05:15 10.1 °C 9.9 °C 1000.6 hPa NNW 2.6 km/h 7.2 km/h 99% 0.0 mm 0 W/m2
05:20 10.0 °C 9.8 °C 1000.6 hPa Calm   7.2 km/h 99% 0.0 mm 0 W/m2
05:25 10.0 °C 9.7 °C 1000.6 hPa Calm   5.0 km/h 98% 0.0 mm 0 W/m2
05:30 9.7 °C 9.6 °C 1000.6 hPa Calm   3.5 km/h 99% 0.0 mm 0 W/m2
05:35 9.6 °C 9.4 °C 1000.6 hPa Calm   2.6 km/h 99% 0.0 mm 0 W/m2
05:40 9.5 °C 9.3 °C 1000.6 hPa NW 1.1 km/h 3.5 km/h 99% 0.0 mm 0 W/m2
05:46 9.5 °C 9.3 °C 1000.6 hPa NNW 1.1 km/h 5.0 km/h 99% 0.0 mm 0 W/m2
05:51 9.4 °C 9.3 °C 1000.6 hPa North 2.6 km/h 5.0 km/h 99% 0.0 mm 0 W/m2
05:56 9.4 °C 9.3 °C 1000.6 hPa North 1.1 km/h 3.5 km/h 99% 0.0 mm 0 W/m2
06:01 9.4 °C 9.3 °C 1000.6 hPa North 2.6 km/h 3.5 km/h 99% 0.0 mm 0 W/m2
06:06 9.4 °C 9.3 °C 1000.2 hPa NNW 2.6 km/h 3.5 km/h 99% 0.0 mm 0 W/m2
06:11 9.5 °C 9.3 °C 1000.6 hPa North 2.6 km/h 3.5 km/h 99% 0.0 mm 0 W/m2
06:17 9.6 °C 9.4 °C 1000.2 hPa NNW 2.6 km/h 5.0 km/h 99% 0.0 mm 0 W/m2
06:22 9.6 °C 9.4 °C 1000.2 hPa Calm   5.0 km/h 99% 0.0 mm 0 W/m2
06:27 9.5 °C 9.3 °C 1000.6 hPa Calm   3.5 km/h 99% 0.0 mm 1 W/m2
06:33 9.6 °C 9.4 °C 1000.2 hPa NW 2.6 km/h 3.5 km/h 99% 0.0 mm 4 W/m2
06:38 9.6 °C 9.4 °C 1000.6 hPa NW 2.6 km/h 6.1 km/h 99% 0.0 mm 9 W/m2
06:43 9.7 °C 9.6 °C 1000.6 hPa North 3.5 km/h 6.1 km/h 99% 0.0 mm 15 W/m2
06:48 9.8 °C 9.7 °C 1000.6 hPa North 2.6 km/h 6.1 km/h 99% 0.0 mm 22 W/m2
06:53 9.9 °C 9.8 °C 1000.6 hPa North 2.6 km/h 5.0 km/h 99% 0.0 mm 27 W/m2
06:59 10.0 °C 9.8 °C 1000.2 hPa NNW 1.1 km/h 5.0 km/h 99% 0.0 mm 45 W/m2
07:05 10.6 °C 10.4 °C 1000.2 hPa NNW 3.5 km/h 6.1 km/h 99% 0.0 mm 68 W/m2
07:10 11.0 °C 10.7 °C 1000.2 hPa NNW 5.0 km/h 7.2 km/h 98% 0.0 mm 90 W/m2
07:15 11.3 °C 11.0 °C 1000.2 hPa NNW 5.0 km/h 7.2 km/h 98% 0.0 mm 101 W/m2
07:20 11.7 °C 11.4 °C 1000.2 hPa NNW 3.5 km/h 7.2 km/h 98% 0.0 mm 113 W/m2
07:25 12.1 °C 11.5 °C 999.9 hPa NNW 2.6 km/h 7.2 km/h 96% 0.0 mm 96 W/m2
07:30 12.4 °C 11.4 °C 999.9 hPa NNW 3.5 km/h 7.2 km/h 94% 0.0 mm 128 W/m2
07:35 12.9 °C 11.8 °C 999.5 hPa NNW 5.0 km/h 7.2 km/h 93% 0.0 mm 172 W/m2
07:40 13.8 °C 12.2 °C 999.5 hPa North 2.6 km/h 7.2 km/h 90% 0.0 mm 176 W/m2
07:45 14.6 °C 12.4 °C 999.5 hPa North 2.6 km/h 7.2 km/h 87% 0.0 mm 100 W/m2
07:50 14.6 °C 12.1 °C 999.2 hPa NNW 3.5 km/h 6.1 km/h 85% 0.0 mm 91 W/m2
07:55 14.5 °C 12.0 °C 999.2 hPa NNW 5.0 km/h 8.7 km/h 85% 0.0 mm 79 W/m2
08:00 14.5 °C 12.2 °C 999.5 hPa NNW 7.2 km/h 9.7 km/h 86% 0.0 mm 82 W/m2
08:05 14.8 °C 12.5 °C 999.5 hPa NW 7.2 km/h 14.8 km/h 86% 0.0 mm 94 W/m2
08:10 15.1 °C 12.4 °C 999.5 hPa NNW 5.0 km/h 14.8 km/h 84% 0.0 mm 102 W/m2
08:15 15.4 °C 12.6 °C 999.5 hPa North 6.1 km/h 13.4 km/h 83% 0.0 mm 120 W/m2
08:20 15.7 °C 12.3 °C 999.5 hPa NNW 7.2 km/h 14.8 km/h 80% 0.0 mm 128 W/m2
08:26 16.2 °C 12.2 °C 999.2 hPa NNW 7.2 km/h 14.8 km/h 77% 0.0 mm 156 W/m2
08:31 16.5 °C 12.1 °C 999.2 hPa North 7.2 km/h 15.8 km/h 75% 0.0 mm 153 W/m2
08:36 17.0 °C 11.9 °C 999.2 hPa North 6.1 km/h 17.2 km/h 72% 0.0 mm 161 W/m2
08:41 17.3 °C 12.0 °C 999.2 hPa North 13.4 km/h 21.9 km/h 71% 0.0 mm 177 W/m2
08:46 17.8 °C 12.1 °C 999.2 hPa NNE 12.2 km/h 21.9 km/h 69% 0.0 mm 180 W/m2
08:51 17.9 °C 11.9 °C 999.2 hPa NNE 8.7 km/h 19.5 km/h 68% 0.0 mm 188 W/m2
08:56 18.1 °C 12.1 °C 998.9 hPa North 8.7 km/h 19.5 km/h 68% 0.0 mm 186 W/m2
09:01 18.2 °C 12.2 °C 999.2 hPa North 6.1 km/h 17.2 km/h 68% 0.0 mm 174 W/m2
09:06 18.3 °C 12.3 °C 998.9 hPa North 6.1 km/h 17.2 km/h 68% 0.0 mm 186 W/m2
09:11 18.6 °C 12.4 °C 998.9 hPa North 11.1 km/h 15.8 km/h 67% 0.0 mm 232 W/m2
09:16 19.1 °C 12.4 °C 998.9 hPa North 11.1 km/h 19.5 km/h 65% 0.0 mm 223 W/m2
09:21 19.4 °C 11.9 °C 998.9 hPa NNW 11.1 km/h 19.5 km/h 62% 0.0 mm 228 W/m2
09:26 19.6 °C 11.6 °C 998.9 hPa NNW 11.1 km/h 19.5 km/h 60% 0.0 mm 259 W/m2
09:31 20.0 °C 11.2 °C 998.9 hPa NNW 13.4 km/h 19.5 km/h 57% 0.0 mm 323 W/m2
09:36 20.6 °C 11.5 °C 998.9 hPa NNW 11.1 km/h 20.9 km/h 56% 0.0 mm 340 W/m2
09:41 21.4 °C 11.7 °C 998.9 hPa NNW 7.2 km/h 20.9 km/h 54% 0.0 mm 461 W/m2
09:46 21.6 °C 10.7 °C 998.9 hPa North 8.7 km/h 33.1 km/h 50% 0.0 mm 232 W/m2
09:51 21.4 °C 10.8 °C 998.9 hPa North 17.2 km/h 33.1 km/h 51% 0.0 mm 426 W/m2
09:56 22.1 °C 10.3 °C 998.9 hPa North 12.2 km/h 23.3 km/h 47% 0.0 mm 567 W/m2
10:01 22.9 °C 10.7 °C 998.9 hPa North 13.4 km/h 23.3 km/h 46% 0.0 mm 429 W/m2
10:06 23.2 °C 10.3 °C 999.2 hPa North 15.8 km/h 21.9 km/h 44% 0.0 mm 337 W/m2
10:11 22.9 °C 10.0 °C 999.2 hPa North 15.8 km/h 21.9 km/h 44% 0.0 mm 630 W/m2
10:16 23.4 °C 10.8 °C 999.2 hPa NNW 11.1 km/h 21.9 km/h 45% 0.0 mm 700 W/m2
10:21 23.1 °C 10.6 °C 999.2 hPa NNW 12.2 km/h 20.9 km/h 45% 0.0 mm 312 W/m2
10:26 22.7 °C 9.8 °C 999.2 hPa North 6.1 km/h 18.3 km/h 44% 0.0 mm 177 W/m2
10:31 22.3 °C 9.4 °C 999.2 hPa North 8.7 km/h 18.3 km/h 44% 0.0 mm 353 W/m2
10:36 23.1 °C 10.6 °C 998.9 hPa NNW 11.1 km/h 24.5 km/h 45% 0.0 mm 804 W/m2
10:41 24.2 °C 10.5 °C 998.9 hPa NNW 14.8 km/h 24.5 km/h 42% 0.0 mm 393 W/m2
10:46 23.6 °C 9.9 °C 998.9 hPa North 15.8 km/h 21.9 km/h 42% 0.0 mm 437 W/m2
10:51 23.4 °C 10.1 °C 998.9 hPa North 9.7 km/h 21.9 km/h 43% 0.0 mm 513 W/m2
10:56 24.2 °C 10.5 °C 998.9 hPa NW 11.1 km/h 21.9 km/h 42% 0.0 mm 863 W/m2
11:01 24.9 °C 10.0 °C 998.9 hPa WNW 7.2 km/h 21.9 km/h 39% 0.0 mm 469 W/m2
11:06 24.4 °C 9.9 °C 998.9 hPa NW 9.7 km/h 21.9 km/h 40% 0.0 mm 410 W/m2
11:11 24.1 °C 10.1 °C 998.9 hPa NNW 6.1 km/h 18.3 km/h 41% 0.0 mm 577 W/m2
11:16 23.6 °C 10.3 °C 998.5 hPa NW 11.1 km/h 20.9 km/h 43% 0.0 mm 192 W/m2
11:21 23.4 °C 10.4 °C 998.5 hPa NW 8.7 km/h 20.9 km/h 44% 0.0 mm 396 W/m2
11:26 24.0 °C 10.7 °C 998.5 hPa NNW 11.1 km/h 19.5 km/h 43% 0.0 mm 752 W/m2
11:31 24.5 °C 10.1 °C 998.5 hPa North 7.2 km/h 19.5 km/h 40% 0.0 mm 358 W/m2
11:36 24.7 °C 10.2 °C 998.2 hPa North 14.8 km/h 19.5 km/h 40% 0.0 mm 878 W/m2
11:41 24.9 °C 10.0 °C 998.2 hPa NNW 8.7 km/h 19.5 km/h 39% 0.0 mm 956 W/m2
11:46 25.3 °C 10.4 °C 998.2 hPa NNW 9.7 km/h 19.5 km/h 39% 0.0 mm 1019 W/m2
11:51 25.6 °C 11.0 °C 997.9 hPa NNW 6.1 km/h 15.8 km/h 40% 0.0 mm 1073 W/m2
11:56 26.0 °C 10.2 °C 997.9 hPa NNW 8.7 km/h 15.8 km/h 37% 0.0 mm 472 W/m2
12:01 25.4 °C 9.7 °C 997.9 hPa North 12.2 km/h 21.9 km/h 37% 0.0 mm 585 W/m2
12:06 25.4 °C 10.1 °C 997.9 hPa NNW 11.1 km/h 21.9 km/h 38% 0.0 mm 1013 W/m2
12:11 25.7 °C 10.3 °C 997.9 hPa NW 7.2 km/h 20.9 km/h 38% 0.0 mm 988 W/m2
12:16 26.1 °C 9.9 °C 997.9 hPa NNW 14.8 km/h 23.3 km/h 36% 0.0 mm 1134 W/m2
12:21 26.2 °C 9.6 °C 997.5 hPa NNW 14.8 km/h 27.0 km/h 35% 0.0 mm 681 W/m2
12:26 26.1 °C 10.3 °C 997.5 hPa NW 8.7 km/h 27.0 km/h 37% 0.0 mm 688 W/m2
12:31 26.1 °C 9.9 °C 997.5 hPa NW 6.1 km/h 20.9 km/h 36% 0.0 mm 460 W/m2
12:36 25.9 °C 10.1 °C 997.5 hPa NW 13.4 km/h 21.9 km/h 37% 0.0 mm 412 W/m2
12:41 25.6 °C 9.8 °C 997.5 hPa NW 13.4 km/h 21.9 km/h 37% 0.0 mm 348 W/m2
12:46 25.3 °C 9.6 °C 997.2 hPa NW 6.1 km/h 19.5 km/h 37% 0.0 mm 320 W/m2
12:51 25.3 °C 10.4 °C 997.2 hPa NW 7.2 km/h 17.2 km/h 39% 0.0 mm 1114 W/m2
12:56 26.5 °C 10.7 °C 997.2 hPa NW 15.8 km/h 18.3 km/h 37% 0.0 mm 1031 W/m2
13:01 27.0 °C 9.4 °C 997.2 hPa NW 11.1 km/h 19.5 km/h 33% 0.0 mm 1038 W/m2
13:06 27.3 °C 9.6 °C 997.2 hPa WNW 7.2 km/h 19.5 km/h 33% 0.0 mm 1058 W/m2
13:11 27.8 °C 10.1 °C 996.8 hPa WNW 5.0 km/h 14.8 km/h 33% 0.0 mm 1033 W/m2
13:16 27.6 °C 9.9 °C 996.8 hPa WNW 12.2 km/h 23.3 km/h 33% 0.0 mm 1016 W/m2
13:21 27.5 °C 9.8 °C 996.8 hPa WNW 12.2 km/h 23.3 km/h 33% 0.0 mm 1006 W/m2
13:26 27.3 °C 9.6 °C 996.5 hPa NW 13.4 km/h 29.4 km/h 33% 0.0 mm 993 W/m2
13:31 27.4 °C 9.7 °C 996.8 hPa NW 9.7 km/h 29.4 km/h 33% 0.0 mm 983 W/m2
13:47 27.2 °C 10.0 °C 996.8 hPa NNW 20.9 km/h 29.4 km/h 34% 0.0 mm 953 W/m2
13:52 27.4 °C 10.6 °C 996.8 hPa NW 12.2 km/h 27.0 km/h 35% 0.0 mm 951 W/m2
13:57 27.5 °C 9.8 °C 996.5 hPa NW 14.8 km/h 27.0 km/h 33% 0.0 mm 946 W/m2
14:02 27.2 °C 10.0 °C 996.5 hPa NW 21.9 km/h 35.6 km/h 34% 0.0 mm 930 W/m2
14:07 27.3 °C 10.5 °C 996.8 hPa NW 18.3 km/h 35.6 km/h 35% 0.0 mm 916 W/m2
14:12 27.4 °C 10.6 °C 996.5 hPa NW 13.4 km/h 29.4 km/h 35% 0.0 mm 914 W/m2
14:17 27.3 °C 10.5 °C 996.8 hPa NW 13.4 km/h 30.6 km/h 35% 0.0 mm 906 W/m2
14:22 27.4 °C 11.4 °C 996.8 hPa NW 13.4 km/h 30.6 km/h 37% 0.0 mm 897 W/m2
14:27 27.4 °C 11.8 °C 996.2 hPa WNW 13.4 km/h 30.6 km/h 38% 0.0 mm 883 W/m2
14:32 27.3 °C 11.8 °C 996.2 hPa NW 21.9 km/h 35.6 km/h 38% 0.0 mm 876 W/m2
14:37 26.9 °C 11.4 °C 996.2 hPa NW 30.6 km/h 40.4 km/h 38% 0.0 mm 863 W/m2
14:42 26.8 °C 11.3 °C 996.5 hPa NNW 20.9 km/h 40.4 km/h 38% 0.0 mm 721 W/m2
14:47 26.9 °C 11.4 °C 996.2 hPa NNW 17.2 km/h 40.4 km/h 38% 0.0 mm 378 W/m2
14:52 26.7 °C 11.6 °C 996.2 hPa NW 13.4 km/h 33.1 km/h 39% 0.0 mm 713 W/m2
14:57 26.9 °C 11.4 °C 996.2 hPa NW 17.2 km/h 33.1 km/h 38% 0.0 mm 802 W/m2
15:02 27.0 °C 11.1 °C 996.2 hPa NW 11.1 km/h 30.6 km/h 37% 0.0 mm 604 W/m2
15:07 27.3 °C 11.3 °C 996.2 hPa NW 17.2 km/h 33.1 km/h 37% 0.0 mm 709 W/m2
15:12 27.3 °C 10.9 °C 996.2 hPa NNW 23.3 km/h 34.3 km/h 36% 0.0 mm 705 W/m2
15:17 27.2 °C 11.7 °C 996.2 hPa NNW 15.8 km/h 34.3 km/h 38% 0.0 mm 734 W/m2
15:22 27.4 °C 12.2 °C 996.2 hPa NW 21.9 km/h 36.7 km/h 39% 0.0 mm 518 W/m2
15:27 26.2 °C 11.6 °C 996.2 hPa NW 29.4 km/h 42.8 km/h 40% 0.0 mm 334 W/m2
15:32 25.7 °C 12.2 °C 996.2 hPa NNW 20.9 km/h 42.8 km/h 43% 0.0 mm 287 W/m2
15:37 25.6 °C 11.4 °C 996.2 hPa NNW 13.4 km/h 34.3 km/h 41% 0.0 mm 257 W/m2
15:42 25.5 °C 12.0 °C 996.2 hPa NW 13.4 km/h 31.7 km/h 43% 0.0 mm 298 W/m2
15:47 25.6 °C 12.1 °C 996.2 hPa NW 12.2 km/h 29.4 km/h 43% 0.0 mm 203 W/m2
15:52 25.3 °C 11.8 °C 996.2 hPa NW 13.4 km/h 25.6 km/h 43% 0.0 mm 192 W/m2
15:57 25.6 °C 12.4 °C 996.2 hPa NW 14.8 km/h 25.6 km/h 44% 0.0 mm 254 W/m2
16:02 26.4 °C 12.5 °C 995.8 hPa NW 31.7 km/h 37.8 km/h 42% 0.0 mm 560 W/m2
16:07 26.9 °C 12.2 °C 995.8 hPa NW 17.2 km/h 37.8 km/h 40% 0.0 mm 389 W/m2
16:12 27.2 °C 11.7 °C 995.5 hPa NNW 18.3 km/h 37.8 km/h 38% 0.0 mm 495 W/m2
16:17 27.2 °C 11.7 °C 995.5 hPa NW 20.9 km/h 34.3 km/h 38% 0.0 mm 464 W/m2
16:22 27.4 °C 13.0 °C 995.5 hPa NW 14.8 km/h 34.3 km/h 41% 0.0 mm 479 W/m2
16:28 27.1 °C 11.6 °C 995.5 hPa NW 13.4 km/h 35.6 km/h 38% 0.0 mm 405 W/m2
16:33 27.5 °C 11.9 °C 995.5 hPa NNW 17.2 km/h 35.6 km/h 38% 0.0 mm 491 W/m2
16:38 27.7 °C 12.5 °C 995.5 hPa NNW 11.1 km/h 28.0 km/h 39% 0.0 mm 404 W/m2
16:43 27.7 °C 11.7 °C 995.5 hPa NNW 13.4 km/h 29.4 km/h 37% 0.0 mm 499 W/m2
16:48 28.5 °C 12.8 °C 995.5 hPa North 12.2 km/h 29.4 km/h 38% 0.0 mm 539 W/m2
16:53 28.3 °C 11.8 °C 995.5 hPa NW 17.2 km/h 30.6 km/h 36% 0.0 mm 522 W/m2
16:58 27.9 °C 10.6 °C 995.5 hPa NW 23.3 km/h 41.7 km/h 34% 0.0 mm 508 W/m2
17:03 27.5 °C 10.7 °C 995.5 hPa NNW 20.9 km/h 41.7 km/h 35% 0.0 mm 486 W/m2
17:08 27.6 °C 11.2 °C 995.5 hPa NNW 21.9 km/h 34.3 km/h 36% 0.0 mm 472 W/m2
17:19 28.2 °C 12.2 °C 995.1 hPa NW 17.2 km/h 41.7 km/h 37% 0.0 mm 435 W/m2
17:24 27.8 °C 11.8 °C 995.1 hPa NW 15.8 km/h 41.7 km/h 37% 0.0 mm 430 W/m2
17:29 27.7 °C 11.3 °C 995.1 hPa NNW 15.8 km/h 40.4 km/h 36% 0.0 mm 377 W/m2
17:34 27.6 °C 11.2 °C 995.1 hPa NNW 11.1 km/h 36.7 km/h 36% 0.0 mm 405 W/m2
17:39 27.5 °C 11.1 °C 995.1 hPa NNW 21.9 km/h 40.4 km/h 36% 0.0 mm 379 W/m2
17:56 27.5 °C 12.3 °C 995.1 hPa NW 19.5 km/h 35.6 km/h 39% 0.0 mm 333 W/m2
18:01 27.4 °C 12.6 °C 995.1 hPa NW 27.0 km/h 41.7 km/h 40% 0.0 mm 310 W/m2
18:06 26.9 °C 12.9 °C 994.5 hPa NW 25.6 km/h 41.7 km/h 42% 0.0 mm 305 W/m2
18:11 27.0 °C 12.7 °C 994.8 hPa NNW 20.9 km/h 41.7 km/h 41% 0.0 mm 274 W/m2
18:16 26.9 °C 13.3 °C 994.5 hPa NW 20.9 km/h 35.6 km/h 43% 0.0 mm 266 W/m2
18:21 26.9 °C 13.3 °C 994.5 hPa NW 13.4 km/h 35.6 km/h 43% 0.0 mm 255 W/m2
18:26 27.1 °C 13.1 °C 994.8 hPa NW 15.8 km/h 35.6 km/h 42% 0.0 mm 242 W/m2
18:31 26.9 °C 13.3 °C 994.5 hPa NW 17.2 km/h 28.0 km/h 43% 0.0 mm 224 W/m2
18:36 26.7 °C 13.1 °C 994.8 hPa NW 24.5 km/h 35.6 km/h 43% 0.0 mm 198 W/m2
18:41 26.2 °C 13.0 °C 995.1 hPa NW 21.9 km/h 35.6 km/h 44% 0.0 mm 114 W/m2
18:46 25.9 °C 13.4 °C 994.8 hPa NNW 13.4 km/h 35.6 km/h 46% 0.0 mm 79 W/m2
18:51 25.8 °C 13.3 °C 994.8 hPa NNW 14.8 km/h 34.3 km/h 46% 0.0 mm 57 W/m2
18:56 25.6 °C 13.2 °C 994.8 hPa NW 18.3 km/h 34.3 km/h 46% 0.0 mm 124 W/m2
19:01 25.7 °C 13.2 °C 994.8 hPa NW 20.9 km/h 34.3 km/h 46% 0.0 mm 73 W/m2
19:06 25.4 °C 13.3 °C 995.1 hPa NW 17.2 km/h 34.3 km/h 47% 0.0 mm 60 W/m2
19:11 25.4 °C 13.3 °C 995.1 hPa NW 13.4 km/h 30.6 km/h 47% 0.0 mm 45 W/m2
19:16 25.3 °C 13.2 °C 994.8 hPa NNW 9.7 km/h 25.6 km/h 47% 0.0 mm 45 W/m2
19:21 25.2 °C 13.1 °C 995.1 hPa NW 18.3 km/h 33.1 km/h 47% 0.0 mm 40 W/m2
19:27 25.2 °C 13.4 °C 995.1 hPa NW 17.2 km/h 33.1 km/h 48% 0.0 mm 51 W/m2
19:32 25.5 °C 13.4 °C 995.1 hPa NW 18.3 km/h 30.6 km/h 47% 0.0 mm 82 W/m2
19:37 25.2 °C 13.4 °C 995.1 hPa NW 15.8 km/h 29.4 km/h 48% 0.0 mm 28 W/m2
19:42 24.8 °C 13.7 °C 995.1 hPa NW 9.7 km/h 24.5 km/h 50% 0.0 mm 24 W/m2
19:47 24.6 °C 13.8 °C 995.5 hPa NNW 9.7 km/h 28.0 km/h 51% 0.0 mm 21 W/m2
19:52 24.5 °C 14.0 °C 995.5 hPa NNW 12.2 km/h 28.0 km/h 52% 0.0 mm 17 W/m2
19:57 24.3 °C 14.1 °C 995.1 hPa NNW 13.4 km/h 36.7 km/h 53% 0.0 mm 13 W/m2
20:02 24.1 °C 14.2 °C 995.5 hPa NNW 11.1 km/h 36.7 km/h 54% 0.0 mm 10 W/m2
20:07 24.1 °C 14.2 °C 995.5 hPa NNW 9.7 km/h 24.5 km/h 54% 0.0 mm 6 W/m2
20:13 23.9 °C 14.3 °C 995.8 hPa NNW 7.2 km/h 24.5 km/h 55% 0.0 mm 3 W/m2
20:18 23.8 °C 14.5 °C 995.8 hPa NNW 11.1 km/h 21.9 km/h 56% 0.0 mm 1 W/m2
20:23 23.8 °C 14.5 °C 995.8 hPa NNW 7.2 km/h 21.9 km/h 56% 0.0 mm 0 W/m2
20:28 23.6 °C 14.6 °C 995.8 hPa NNW 11.1 km/h 21.9 km/h 57% 0.0 mm 0 W/m2
20:33 23.6 °C 14.3 °C 996.2 hPa NNW 12.2 km/h 20.9 km/h 56% 0.0 mm 0 W/m2
20:38 23.6 °C 14.6 °C 995.8 hPa NW 12.2 km/h 20.9 km/h 57% 0.0 mm 0 W/m2
20:43 23.5 °C 14.5 °C 996.2 hPa NNW 13.4 km/h 23.3 km/h 57% 0.0 mm 0 W/m2
20:48 23.5 °C 14.5 °C 996.2 hPa NNW 12.2 km/h 23.3 km/h 57% 0.0 mm 0 W/m2
20:53 23.5 °C 14.5 °C 996.2 hPa NNW 14.8 km/h 25.6 km/h 57% 0.0 mm 0 W/m2
20:59 23.6 °C 14.6 °C 996.5 hPa NW 12.2 km/h 29.4 km/h 57% 0.0 mm 0 W/m2
21:04 23.5 °C 14.5 °C 996.5 hPa NW 19.5 km/h 29.4 km/h 57% 0.0 mm 0 W/m2
21:09 23.4 °C 14.4 °C 996.5 hPa NW 9.7 km/h 25.6 km/h 57% 0.0 mm 0 W/m2
21:14 23.4 °C 14.4 °C 996.8 hPa NNW 14.8 km/h 25.6 km/h 57% 0.0 mm 0 W/m2
21:19 23.4 °C 14.4 °C 996.8 hPa NNW 13.4 km/h 24.5 km/h 57% 0.0 mm 0 W/m2
21:24 23.4 °C 14.7 °C 996.8 hPa NNW 13.4 km/h 24.5 km/h 58% 0.0 mm 0 W/m2
21:29 23.4 °C 14.7 °C 996.8 hPa NW 17.2 km/h 24.5 km/h 58% 0.0 mm 0 W/m2
21:34 23.4 °C 14.7 °C 996.8 hPa NNW 14.8 km/h 27.0 km/h 58% 0.0 mm 0 W/m2
21:39 23.4 °C 14.7 °C 996.5 hPa NNW 17.2 km/h 27.0 km/h 58% 0.0 mm 0 W/m2
21:44 23.4 °C 14.7 °C 996.8 hPa NW 13.4 km/h 27.0 km/h 58% 0.0 mm 0 W/m2
21:49 23.2 °C 14.8 °C 996.8 hPa NW 12.2 km/h 27.0 km/h 59% 0.0 mm 0 W/m2
21:54 23.0 °C 14.6 °C 996.8 hPa NNW 9.7 km/h 20.9 km/h 59% 0.0 mm 0 W/m2
21:59 22.9 °C 15.0 °C 996.8 hPa NW 11.1 km/h 20.9 km/h 61% 0.0 mm 0 W/m2
22:04 22.8 °C 14.9 °C 996.8 hPa NNW 12.2 km/h 19.5 km/h 61% 0.0 mm 0 W/m2
22:09 22.8 °C 15.2 °C 996.8 hPa North 9.7 km/h 19.5 km/h 62% 0.0 mm 0 W/m2
22:14 22.8 °C 15.2 °C 996.8 hPa North 8.7 km/h 17.2 km/h 62% 0.0 mm 0 W/m2
22:19 22.7 °C 15.1 °C 996.8 hPa North 6.1 km/h 17.2 km/h 62% 0.0 mm 0 W/m2
22:24 22.6 °C 14.9 °C 996.8 hPa North 5.0 km/h 17.2 km/h 62% 0.0 mm 0 W/m2
22:29 22.6 °C 14.9 °C 996.8 hPa NNW 3.5 km/h 11.1 km/h 62% 0.0 mm 0 W/m2
22:34 22.4 °C 15.0 °C 996.8 hPa NNW 5.0 km/h 13.4 km/h 63% 0.0 mm 0 W/m2
22:39 22.4 °C 15.0 °C 996.8 hPa NNW 5.0 km/h 13.4 km/h 63% 0.0 mm 0 W/m2
22:44 22.3 °C 14.9 °C 996.5 hPa NNW 3.5 km/h 13.4 km/h 63% 0.0 mm 0 W/m2
22:49 22.2 °C 14.8 °C 996.5 hPa NNW 9.7 km/h 17.2 km/h 63% 0.0 mm 0 W/m2
22:55 22.0 °C 14.9 °C 996.5 hPa NNW 7.2 km/h 17.2 km/h 64% 0.0 mm 0 W/m2
23:00 21.9 °C 15.1 °C 996.5 hPa North 7.2 km/h 15.8 km/h 65% 0.0 mm 0 W/m2
23:06 22.0 °C 15.1 °C 996.5 hPa North 5.0 km/h 15.8 km/h 65% 0.0 mm 0 W/m2
23:11 22.3 °C 15.4 °C 996.2 hPa North 6.1 km/h 20.9 km/h 65% 0.0 mm 0 W/m2
23:16 22.2 °C 15.3 °C 996.2 hPa North 7.2 km/h 20.9 km/h 65% 0.0 mm 0 W/m2
23:22 22.3 °C 15.2 °C 996.2 hPa North 7.2 km/h 12.2 km/h 64% 0.0 mm 0 W/m2
23:27 22.3 °C 15.4 °C 996.5 hPa NNE 3.5 km/h 12.2 km/h 65% 0.0 mm 0 W/m2
23:32 22.1 °C 15.2 °C 996.5 hPa North 3.5 km/h 9.7 km/h 65% 0.0 mm 0 W/m2
23:37 22.1 °C 15.2 °C 996.2 hPa North 3.5 km/h 9.7 km/h 65% 0.0 mm 0 W/m2
23:42 22.0 °C 15.4 °C 996.2 hPa NNW 5.0 km/h 9.7 km/h 66% 0.0 mm 0 W/m2
23:47 21.8 °C 15.4 °C 996.2 hPa NW 3.5 km/h 7.2 km/h 67% 0.0 mm 0 W/m2
23:52 21.5 °C 15.6 °C 996.5 hPa NNW 5.0 km/h 8.7 km/h 69% 0.0 mm 0 W/m2
23:57 21.5 °C 15.8 °C 996.5 hPa NNW 5.0 km/h 9.7 km/h 70% 0.0 mm 0 W/m2
Northern Hawkes Bay. New Zealand Historic Data
Compliments of Weather Underground - 2 mb